Time;durP1;ratioP1;P1;durP2;ratioP2;P2;SDS_P1;SDS_P2;PMS_P1;PMS_P2;Temp;Humidity;BMP_temperature;BMP_pressure;BME280_temperature;BME280_humidity;BME280_pressure;Samples;Min_cycle;Max_cycle;Signal;HPM_P1;HPM_P2
2021/10/30 00:00:21;;;;;;;18.15;4.53;;;8.30;99.90;;;;;;5044992;28;20108;-93
2021/10/30 00:02:50;;;;;;;13.00;3.63;;;8.30;99.90;;;;;;5040253;28;20038;-95
2021/10/30 00:05:15;;;;;;;24.80;4.50;;;8.40;99.90;;;;;;5026272;28;20038;-94
2021/10/30 00:07:42;;;;;;;16.50;3.28;;;8.40;99.90;;;;;;5024041;28;20018;-93
2021/10/30 00:10:13;;;;;;;17.75;5.07;;;8.40;99.90;;;;;;5029029;28;20026;-94
2021/10/30 00:12:39;;;;;;;19.48;4.72;;;8.50;99.90;;;;;;5048738;28;20026;-93
2021/10/30 00:15:06;;;;;;;18.02;4.10;;;8.50;99.90;;;;;;5051773;28;20040;-94
2021/10/30 00:17:32;;;;;;;16.40;4.68;;;8.50;99.90;;;;;;5024514;28;20049;-94
2021/10/30 00:19:58;;;;;;;13.93;3.30;;;8.50;99.90;;;;;;5049245;28;20023;-96
2021/10/30 00:22:23;;;;;;;20.48;3.53;;;8.60;99.90;;;;;;5047233;28;20048;-94
2021/10/30 00:24:49;;;;;;;19.88;3.42;;;8.60;99.90;;;;;;5051350;28;20014;-93
2021/10/30 00:27:15;;;;;;;18.42;3.13;;;8.60;99.90;;;;;;5033938;28;20468;-94
2021/10/30 00:29:41;;;;;;;16.98;2.97;;;8.60;99.90;;;;;;5021319;28;20018;-92
2021/10/30 00:32:08;;;;;;;21.48;4.22;;;8.60;99.90;;;;;;5036828;28;20042;-93
2021/10/30 00:34:33;;;;;;;14.30;3.47;;;8.60;99.90;;;;;;5035385;28;20030;-96
2021/10/30 00:37:00;;;;;;;16.98;3.42;;;8.70;99.90;;;;;;5046135;28;20022;-94
2021/10/30 00:39:27;;;;;;;13.00;3.83;;;8.70;99.90;;;;;;5032845;28;20033;-96
2021/10/30 00:41:54;;;;;;;16.38;4.00;;;8.70;99.90;;;;;;5018349;28;20026;-95
2021/10/30 00:44:20;;;;;;;11.77;2.90;;;8.70;99.90;;;;;;5032214;28;20033;-93
2021/10/30 00:46:49;;;;;;;20.35;3.55;;;8.70;99.90;;;;;;5033724;28;20044;-93
2021/10/30 00:49:17;;;;;;;17.38;2.63;;;8.70;99.90;;;;;;5027069;28;20017;-93
2021/10/30 00:51:47;;;;;;;18.90;3.20;;;8.80;99.90;;;;;;5017812;28;20018;-94
2021/10/30 00:54:21;;;;;;;15.40;2.77;;;8.80;99.90;;;;;;5051878;28;20089;-94
2021/10/30 00:56:50;;;;;;;14.20;2.75;;;8.80;99.90;;;;;;5034580;28;20024;-96
2021/10/30 00:59:17;;;;;;;13.07;2.65;;;8.80;99.90;;;;;;5033904;28;20049;-95
2021/10/30 01:01:47;;;;;;;13.65;2.85;;;8.80;99.90;;;;;;5032552;28;20018;-95
2021/10/30 01:04:13;;;;;;;21.33;3.13;;;8.70;99.90;;;;;;5025653;28;20045;-93
2021/10/30 01:06:42;;;;;;;20.17;2.65;;;8.70;99.90;;;;;;5033276;28;20280;-95
2021/10/30 01:09:10;;;;;;;17.35;2.30;;;8.70;99.90;;;;;;5035439;28;20034;-94
2021/10/30 01:11:36;;;;;;;9.52;1.92;;;8.70;99.90;;;;;;5018053;28;20030;-96
2021/10/30 01:14:02;;;;;;;18.80;2.92;;;8.70;99.90;;;;;;5035388;28;20045;-95
2021/10/30 01:16:30;;;;;;;13.82;1.88;;;8.70;99.90;;;;;;5051904;28;20030;-95
2021/10/30 01:18:56;;;;;;;16.52;2.00;;;8.70;99.90;;;;;;5035032;28;20022;-95
2021/10/30 01:21:30;;;;;;;18.80;2.92;;;8.70;99.90;;;;;;5031571;28;20057;-95
2021/10/30 01:23:59;;;;;;;19.30;2.40;;;8.70;99.90;;;;;;5032135;28;20030;-95
2021/10/30 01:26:26;;;;;;;17.85;2.83;;;8.70;99.90;;;;;;5030222;28;20030;-96
2021/10/30 01:28:54;;;;;;;14.43;2.25;;;8.70;99.90;;;;;;5048040;28;20006;-95
2021/10/30 01:31:23;;;;;;;19.73;2.17;;;8.70;99.90;;;;;;5044569;28;20037;-96
2021/10/30 01:33:50;;;;;;;11.43;2.03;;;8.70;99.90;;;;;;5032950;28;20037;-94
2021/10/30 01:36:19;;;;;;;16.02;2.55;;;8.70;99.90;;;;;;5030182;28;20113;-94
2021/10/30 01:38:45;;;;;;;13.15;2.10;;;8.80;99.90;;;;;;5033344;28;20048;-96
2021/10/30 01:41:11;;;;;;;9.85;2.20;;;8.80;99.90;;;;;;5029425;28;20460;-95
2021/10/30 01:43:38;;;;;;;15.18;2.20;;;8.80;99.90;;;;;;5034023;28;20025;-96
2021/10/30 01:46:04;;;;;;;12.98;1.80;;;8.80;99.90;;;;;;5047788;28;20026;-96
2021/10/30 01:48:32;;;;;;;19.60;4.78;;;8.70;99.90;;;;;;5026406;28;20023;-96
2021/10/30 01:50:58;;;;;;;17.73;2.50;;;8.70;99.90;;;;;;5028922;28;20042;-95
2021/10/30 01:53:24;;;;;;;16.77;2.33;;;8.70;99.90;;;;;;5027619;28;20092;-95
2021/10/30 01:55:50;;;;;;;24.45;2.83;;;8.70;99.90;;;;;;5027292;28;20034;-96
2021/10/30 01:58:16;;;;;;;11.05;1.95;;;8.70;99.90;;;;;;5026438;28;20049;-95
2021/10/30 02:00:47;;;;;;;17.77;2.58;;;8.70;99.90;;;;;;5026890;28;20029;-96
2021/10/30 02:03:12;;;;;;;;;;;8.70;99.90;;;;;;5029170;28;20026;-94
2021/10/30 02:05:38;;;;;;;13.38;3.20;;;8.70;99.90;;;;;;5033055;28;19910;-94
2021/10/30 02:08:04;;;;;;;13.23;2.28;;;8.70;99.90;;;;;;5034114;28;20030;-93
2021/10/30 02:10:31;;;;;;;12.40;2.10;;;8.70;99.90;;;;;;5022455;28;20106;-95
2021/10/30 02:12:57;;;;;;;12.55;2.50;;;8.80;99.90;;;;;;5028064;28;20048;-95
2021/10/30 02:15:25;;;;;;;17.83;3.03;;;8.80;99.90;;;;;;5048350;28;20078;-95
2021/10/30 02:17:51;;;;;;;20.05;3.15;;;8.80;99.90;;;;;;5049520;28;20044;-93
2021/10/30 02:20:17;;;;;;;14.95;3.60;;;8.80;99.90;;;;;;5046958;28;20037;-94
2021/10/30 02:22:46;;;;;;;15.88;3.13;;;8.80;99.90;;;;;;5035857;28;20007;-95
2021/10/30 02:25:15;;;;;;;17.27;3.30;;;8.90;99.90;;;;;;5048991;28;20030;-95
2021/10/30 02:27:40;;;;;;;21.70;3.08;;;8.90;99.90;;;;;;5031055;28;20108;-93
2021/10/30 02:30:06;;;;;;;15.15;3.13;;;8.90;99.90;;;;;;5031296;28;20169;-94
2021/10/30 02:32:33;;;;;;;13.90;3.38;;;8.90;99.90;;;;;;5031278;28;20014;-94
2021/10/30 02:34:59;;;;;;;18.75;3.63;;;8.90;99.90;;;;;;5014091;28;20025;-94
2021/10/30 02:37:24;;;;;;;18.17;3.45;;;8.80;99.90;;;;;;5024494;28;20025;-94
2021/10/30 02:39:50;;;;;;;18.23;3.13;;;8.90;99.90;;;;;;5028363;28;20688;-94
2021/10/30 02:42:16;;;;;;;15.75;2.95;;;8.90;99.90;;;;;;5024375;28;20060;-95
2021/10/30 02:44:44;;;;;;;14.98;2.67;;;8.90;99.90;;;;;;5043577;28;20044;-93
2021/10/30 02:47:10;;;;;;;16.70;2.63;;;8.90;99.90;;;;;;5044958;28;20022;-94
2021/10/30 02:49:36;;;;;;;13.40;2.35;;;8.90;99.90;;;;;;5027011;28;20022;-95
2021/10/30 02:52:03;;;;;;;14.60;2.85;;;8.90;99.90;;;;;;5022229;28;20018;-95
2021/10/30 02:54:29;;;;;;;11.88;2.45;;;8.90;99.90;;;;;;5029208;28;20030;-96
2021/10/30 02:56:54;;;;;;;15.07;2.90;;;9.00;99.90;;;;;;5029175;28;20037;-95
2021/10/30 02:59:20;;;;;;;14.77;2.22;;;9.00;99.90;;;;;;5028199;28;20081;-94
2021/10/30 03:01:46;;;;;;;15.68;2.97;;;9.00;99.90;;;;;;5028686;28;20033;-94
2021/10/30 03:04:13;;;;;;;10.30;2.45;;;9.00;99.90;;;;;;5024687;28;20086;-94
2021/10/30 03:06:39;;;;;;;15.27;3.25;;;9.00;99.90;;;;;;5030163;28;20022;-92
2021/10/30 03:09:05;;;;;;;16.15;2.25;;;9.00;99.90;;;;;;5034922;28;20038;-94
2021/10/30 03:11:32;;;;;;;17.83;2.95;;;9.00;99.90;;;;;;5034002;28;20038;-94
2021/10/30 03:13:58;;;;;;;17.55;3.40;;;9.00;99.90;;;;;;5031661;28;20101;-94
2021/10/30 03:16:23;;;;;;;14.43;2.78;;;9.10;99.90;;;;;;5031796;28;20014;-94
2021/10/30 03:18:49;;;;;;;24.45;2.90;;;9.10;99.90;;;;;;5047757;28;20042;-94
2021/10/30 03:21:15;;;;;;;11.75;2.97;;;9.10;99.90;;;;;;5032566;28;20089;-94
2021/10/30 03:23:40;;;;;;;17.17;3.17;;;9.10;99.90;;;;;;5032351;28;20021;-94
2021/10/30 03:26:06;;;;;;;15.18;3.45;;;9.10;99.90;;;;;;5031373;28;20030;-94
2021/10/30 03:28:32;;;;;;;13.77;3.33;;;9.10;99.90;;;;;;5029137;28;20265;-93
2021/10/30 03:30:58;;;;;;;23.10;3.80;;;9.20;99.90;;;;;;5046105;28;20565;-93
2021/10/30 03:33:24;;;;;;;16.80;3.47;;;9.20;99.90;;;;;;5029707;28;20050;-96
2021/10/30 03:35:50;;;;;;;14.00;3.33;;;9.20;99.90;;;;;;5047612;28;20057;-94
2021/10/30 03:38:16;;;;;;;10.30;2.67;;;9.10;99.90;;;;;;5051648;28;20089;-94
2021/10/30 03:40:42;;;;;;;11.18;3.08;;;9.20;99.90;;;;;;5051860;28;20049;-93
2021/10/30 03:43:07;;;;;;;14.30;4.40;;;9.20;99.90;;;;;;5033714;28;20056;-94
2021/10/30 03:45:33;;;;;;;12.95;3.20;;;9.20;99.90;;;;;;5044293;28;20030;-96
2021/10/30 03:48:07;;;;;;;17.83;4.00;;;9.20;99.90;;;;;;5028629;28;20487;-94
2021/10/30 03:50:33;;;;;;;14.38;3.28;;;9.20;99.90;;;;;;5027767;28;20045;-94
2021/10/30 03:52:59;;;;;;;25.60;4.10;;;9.20;99.90;;;;;;5036813;28;20026;-94
2021/10/30 03:55:25;;;;;;;14.98;2.83;;;9.20;99.90;;;;;;5038877;28;20014;-94
2021/10/30 03:57:51;;;;;;;14.35;2.83;;;9.20;99.90;;;;;;5035752;28;20033;-95
2021/10/30 04:00:16;;;;;;;19.17;3.17;;;9.20;99.90;;;;;;5032980;28;20046;-95
2021/10/30 04:02:42;;;;;;;14.85;2.72;;;9.20;99.90;;;;;;5035249;28;20042;-94
2021/10/30 04:05:09;;;;;;;16.70;3.47;;;9.20;99.90;;;;;;5036088;28;20060;-94
2021/10/30 04:07:36;;;;;;;15.32;2.65;;;9.20;99.90;;;;;;5033299;28;20017;-94
2021/10/30 04:10:04;;;;;;;14.15;2.60;;;9.20;99.90;;;;;;5032626;28;20124;-93
2021/10/30 04:12:30;;;;;;;13.77;2.22;;;9.20;99.90;;;;;;5045822;28;20018;-95
2021/10/30 04:14:56;;;;;;;13.35;2.60;;;9.20;99.90;;;;;;5048818;28;20037;-96
2021/10/30 04:17:23;;;;;;;15.95;2.88;;;9.20;99.90;;;;;;5046798;28;20018;-95
2021/10/30 04:19:49;;;;;;;14.48;2.85;;;9.20;99.90;;;;;;5044531;28;20550;-96
2021/10/30 04:22:15;;;;;;;18.10;3.00;;;9.20;99.90;;;;;;5024058;28;20060;-95
2021/10/30 04:24:40;;;;;;;15.13;2.53;;;9.20;99.90;;;;;;5028854;28;20093;-94
2021/10/30 04:27:06;;;;;;;17.63;3.30;;;9.20;99.90;;;;;;5046925;28;20029;-93
2021/10/30 04:29:32;;;;;;;14.00;2.10;;;9.20;99.90;;;;;;5048851;28;20052;-95
2021/10/30 04:31:59;;;;;;;18.48;2.88;;;9.20;99.90;;;;;;5031973;28;20018;-94
2021/10/30 04:34:43;;;;;;;13.88;2.60;;;9.20;99.90;;;;;;5046964;28;20021;-95
2021/10/30 04:37:16;;;;;;;24.70;2.92;;;9.20;99.90;;;;;;5049144;28;20041;-94
2021/10/30 04:39:46;;;;;;;10.18;2.40;;;9.20;99.90;;;;;;5046403;28;20052;-96
2021/10/30 04:42:13;;;;;;;13.52;2.38;;;9.20;99.90;;;;;;5033378;28;20102;-94
2021/10/30 04:44:39;;;;;;;13.57;2.70;;;9.20;99.90;;;;;;5029646;28;20097;-95
2021/10/30 04:47:06;;;;;;;17.40;3.17;;;9.20;99.90;;;;;;5030039;28;20022;-94
2021/10/30 04:49:34;;;;;;;18.05;3.22;;;9.20;99.90;;;;;;5048099;28;20034;-95
2021/10/30 04:52:00;;;;;;;15.38;3.22;;;9.20;99.90;;;;;;5031479;28;20041;-94
2021/10/30 04:54:25;;;;;;;20.23;3.65;;;9.30;99.90;;;;;;5028137;28;20029;-95
2021/10/30 04:56:51;;;;;;;18.80;2.75;;;9.30;99.90;;;;;;5030293;28;20460;-95
2021/10/30 04:59:17;;;;;;;14.93;3.10;;;9.30;99.90;;;;;;5029750;28;20049;-96
2021/10/30 05:01:44;;;;;;;13.40;2.80;;;9.30;99.90;;;;;;5012862;28;20010;-96
2021/10/30 05:04:10;;;;;;;15.48;3.38;;;9.30;99.90;;;;;;5032383;28;20018;-94
2021/10/30 05:06:36;;;;;;;14.38;2.50;;;9.30;99.90;;;;;;5047833;28;20025;-95
2021/10/30 05:09:02;;;;;;;12.73;2.78;;;9.30;99.90;;;;;;5029480;28;20559;-95
2021/10/30 05:11:28;;;;;;;16.60;3.50;;;9.30;99.90;;;;;;5017504;28;20388;-96
2021/10/30 05:13:53;;;;;;;15.23;4.38;;;9.30;99.90;;;;;;5017748;28;20022;-94
2021/10/30 05:16:19;;;;;;;12.57;2.92;;;9.40;99.90;;;;;;5019769;28;20097;-96
2021/10/30 05:18:44;;;;;;;14.43;2.72;;;9.30;99.90;;;;;;5020727;28;20383;-94
2021/10/30 05:21:11;;;;;;;14.63;2.63;;;9.40;99.90;;;;;;5027725;28;20026;-95
2021/10/30 05:23:40;;;;;;;18.25;3.15;;;9.40;99.90;;;;;;5043003;28;20613;-95
2021/10/30 05:26:07;;;;;;;16.33;2.83;;;9.30;99.90;;;;;;5026243;28;20042;-96
2021/10/30 05:28:35;;;;;;;18.10;2.97;;;9.30;99.90;;;;;;5041681;28;20049;-95
2021/10/30 05:31:04;;;;;;;13.48;3.15;;;9.40;99.90;;;;;;5020869;28;20037;-96
2021/10/30 05:33:30;;;;;;;18.13;4.25;;;9.30;99.90;;;;;;5016435;28;20187;-95
2021/10/30 05:35:58;;;;;;;11.07;2.65;;;9.30;99.90;;;;;;4996974;28;20125;-95
2021/10/30 05:38:24;;;;;;;22.50;3.35;;;9.30;99.90;;;;;;5018579;28;20029;-96
2021/10/30 05:40:49;;;;;;;7.45;2.60;;;9.30;99.90;;;;;;5037696;28;20553;-95
2021/10/30 05:43:15;;;;;;;15.02;2.78;;;9.30;99.90;;;;;;5027944;28;20077;-96
2021/10/30 05:45:46;;;;;;;19.25;3.03;;;9.30;99.90;;;;;;5042401;28;20083;-96
2021/10/30 05:48:17;;;;;;;;;;;9.30;99.90;;;;;;5024885;28;20026;-95
2021/10/30 05:50:46;;;;;;;14.93;3.22;;;9.30;99.90;;;;;;5048640;28;19897;-94
2021/10/30 05:53:12;;;;;;;14.02;3.63;;;9.30;99.90;;;;;;5018200;28;20026;-93
2021/10/30 05:55:43;;;;;;;13.00;3.15;;;9.20;99.90;;;;;;5032455;28;20097;-95
2021/10/30 05:58:13;;;;;;;12.45;2.97;;;9.20;99.90;;;;;;5031147;28;20017;-94
2021/10/30 06:00:39;;;;;;;17.38;3.15;;;9.30;99.90;;;;;;5032279;28;20058;-96
2021/10/30 06:03:04;;;;;;;11.45;2.72;;;9.20;99.90;;;;;;5032222;28;20093;-95
2021/10/30 06:05:30;;;;;;;20.08;3.08;;;9.30;99.90;;;;;;5050428;28;20020;-95
2021/10/30 06:07:56;;;;;;;16.52;3.33;;;9.20;99.90;;;;;;5030683;28;20013;-96
2021/10/30 06:10:22;;;;;;;14.48;3.13;;;9.20;99.90;;;;;;5034397;28;20054;-92
2021/10/30 06:12:48;;;;;;;13.70;2.63;;;9.30;99.90;;;;;;5033228;28;20022;-95
2021/10/30 06:15:14;;;;;;;17.23;3.88;;;9.20;99.90;;;;;;5032330;28;20028;-96
2021/10/30 06:17:40;;;;;;;15.23;2.85;;;9.20;99.90;;;;;;5031213;28;20077;-94
2021/10/30 06:20:10;;;;;;;16.80;4.18;;;9.20;99.90;;;;;;5047794;28;20065;-96
2021/10/30 06:22:42;;;;;;;15.75;3.30;;;9.20;99.90;;;;;;5032949;28;20030;-96
2021/10/30 06:25:25;;;;;;;15.70;3.05;;;9.20;99.90;;;;;;5029743;28;20045;-95
2021/10/30 06:27:50;;;;;;;;;;;9.20;99.90;;;;;;5045115;28;20034;-95
2021/10/30 06:30:21;;;;;;;14.75;4.22;;;9.20;99.90;;;;;;5030537;28;19920;-96
2021/10/30 06:32:47;;;;;;;11.48;3.13;;;9.20;99.90;;;;;;5025049;28;20026;-95
2021/10/30 06:35:12;;;;;;;15.10;2.72;;;9.20;99.90;;;;;;5042368;28;20036;-94
2021/10/30 06:37:39;;;;;;;18.17;2.95;;;9.20;99.90;;;;;;5027702;28;20018;-95
2021/10/30 06:40:10;;;;;;;13.00;2.80;;;9.20;99.90;;;;;;5043289;28;20029;-95
2021/10/30 06:42:36;;;;;;;12.40;3.00;;;9.20;99.90;;;;;;5033120;28;20053;-95
2021/10/30 06:45:03;;;;;;;11.15;3.20;;;9.30;99.90;;;;;;5033992;28;20453;-95
2021/10/30 06:47:28;;;;;;;19.80;3.13;;;9.30;99.90;;;;;;5029014;28;20029;-94
2021/10/30 06:49:58;;;;;;;19.85;3.03;;;9.30;99.90;;;;;;5021884;28;20072;-94
2021/10/30 06:52:24;;;;;;;14.25;3.10;;;9.30;99.90;;;;;;5025419;28;20042;-95
2021/10/30 06:54:50;;;;;;;18.20;4.85;;;9.30;99.90;;;;;;5036985;28;20109;-94
2021/10/30 06:57:18;;;;;;;8.80;3.67;;;9.30;99.90;;;;;;5021464;28;20084;-96
2021/10/30 06:59:44;;;;;;;18.77;4.75;;;9.30;99.90;;;;;;5022723;28;20085;-96
2021/10/30 07:02:11;;;;;;;18.15;3.92;;;9.30;99.90;;;;;;5039606;28;20033;-94
2021/10/30 07:04:37;;;;;;;13.48;3.88;;;9.40;99.90;;;;;;5041186;28;20029;-94
2021/10/30 07:07:03;;;;;;;19.45;3.97;;;9.40;99.90;;;;;;5026457;28;20109;-94
2021/10/30 07:09:29;;;;;;;16.33;4.05;;;9.40;99.90;;;;;;5027596;28;20030;-94
2021/10/30 07:11:55;;;;;;;13.88;3.58;;;9.40;99.90;;;;;;5042927;28;20089;-95
2021/10/30 07:14:22;;;;;;;12.65;3.25;;;9.40;99.90;;;;;;5030987;28;20129;-94
2021/10/30 07:16:48;;;;;;;10.02;3.42;;;9.40;99.90;;;;;;5026921;28;20045;-95
2021/10/30 07:19:14;;;;;;;13.18;3.70;;;9.40;99.90;;;;;;5042729;28;20038;-94
2021/10/30 07:21:40;;;;;;;8.07;3.17;;;9.40;99.90;;;;;;5027598;28;20040;-95
2021/10/30 07:24:08;;;;;;;11.90;3.50;;;9.40;99.90;;;;;;5023459;28;20032;-94
2021/10/30 07:26:34;;;;;;;12.02;3.40;;;9.40;99.90;;;;;;5022698;28;20101;-94
2021/10/30 07:28:59;;;;;;;10.98;3.17;;;9.40;99.90;;;;;;5020432;28;20033;-93
2021/10/30 07:31:25;;;;;;;8.75;3.38;;;9.40;99.90;;;;;;5020822;28;20076;-94
2021/10/30 07:33:51;;;;;;;13.15;3.33;;;9.40;99.90;;;;;;5036160;28;20053;-94
2021/10/30 07:36:16;;;;;;;13.93;3.50;;;9.40;99.90;;;;;;5038100;28;20025;-93
2021/10/30 07:38:43;;;;;;;11.73;3.78;;;9.50;99.90;;;;;;5023616;28;20030;-94
2021/10/30 07:41:08;;;;;;;15.73;3.65;;;9.40;99.90;;;;;;5022944;28;20116;-95
2021/10/30 07:43:34;;;;;;;9.02;2.70;;;9.50;99.90;;;;;;5041922;28;20044;-96
2021/10/30 07:46:00;;;;;;;1.73;0.90;;;9.50;99.90;;;;;;5021628;28;20053;-94
2021/10/30 07:48:25;;;;;;;4.75;0.85;;;9.40;99.90;;;;;;5015486;28;20030;-95
2021/10/30 07:50:51;;;;;;;1.83;0.77;;;9.40;99.90;;;;;;5034674;28;20026;-94
2021/10/30 07:53:17;;;;;;;3.20;0.80;;;9.40;99.90;;;;;;5035395;28;20021;-94
2021/10/30 07:55:43;;;;;;;3.75;1.40;;;9.30;99.90;;;;;;5016186;28;20031;-93
2021/10/30 07:58:09;;;;;;;4.60;0.80;;;9.30;99.90;;;;;;5018518;28;20040;-94
2021/10/30 08:00:34;;;;;;;3.58;0.90;;;9.30;99.90;;;;;;5017025;28;20060;-94
2021/10/30 08:03:00;;;;;;;2.92;0.68;;;9.30;99.90;;;;;;5015897;28;20625;-95
2021/10/30 08:05:26;;;;;;;3.97;0.73;;;9.30;99.90;;;;;;5001309;28;20026;-95
2021/10/30 08:07:51;;;;;;;2.88;0.55;;;9.20;99.90;;;;;;5034781;28;20064;-94
2021/10/30 08:10:18;;;;;;;3.20;0.40;;;9.20;99.90;;;;;;5015436;28;20026;-93
2021/10/30 08:12:44;;;;;;;3.55;0.57;;;9.10;99.90;;;;;;5016066;28;20042;-93
2021/10/30 08:15:10;;;;;;;1.42;0.40;;;9.10;99.90;;;;;;5031972;28;20061;-94
2021/10/30 08:17:38;;;;;;;1.13;0.30;;;9.00;99.90;;;;;;5032692;28;20022;-94
2021/10/30 08:20:05;;;;;;;3.17;1.27;;;9.00;99.90;;;;;;5014363;28;20034;-93
2021/10/30 08:22:31;;;;;;;3.28;0.60;;;9.00;99.90;;;;;;5015647;28;20022;-93
2021/10/30 08:24:58;;;;;;;3.22;0.40;;;9.00;99.90;;;;;;5013970;28;20022;-94
2021/10/30 08:27:24;;;;;;;2.33;0.40;;;9.00;99.90;;;;;;5032592;28;20022;-94
2021/10/30 08:29:50;;;;;;;1.40;0.38;;;9.00;99.90;;;;;;5018561;28;20084;-93
2021/10/30 08:32:15;;;;;;;2.15;0.50;;;8.90;99.90;;;;;;5032762;28;20022;-93
2021/10/30 08:34:41;;;;;;;0.70;0.10;;;8.90;99.90;;;;;;5015959;28;20467;-92
2021/10/30 08:37:08;;;;;;;0.95;0.35;;;8.90;99.90;;;;;;5013139;28;20038;-93
2021/10/30 08:39:35;;;;;;;1.77;0.45;;;8.90;99.90;;;;;;5031081;28;20057;-94
2021/10/30 08:42:01;;;;;;;1.30;0.30;;;8.90;99.90;;;;;;5015729;28;20030;-94
2021/10/30 08:44:26;;;;;;;3.47;1.02;;;8.90;99.90;;;;;;5016312;28;20033;-94
2021/10/30 08:46:53;;;;;;;1.65;0.47;;;8.90;99.90;;;;;;5030837;28;20030;-95
2021/10/30 08:49:20;;;;;;;0.85;0.17;;;8.90;99.90;;;;;;5014655;28;20026;-95
2021/10/30 08:51:47;;;;;;;3.25;0.47;;;8.90;99.90;;;;;;5014785;28;20499;-94
2021/10/30 08:54:13;;;;;;;0.68;0.30;;;8.90;99.90;;;;;;5031971;28;20034;-95
2021/10/30 08:56:39;;;;;;;2.63;0.50;;;8.90;99.90;;;;;;5037913;28;20179;-94
2021/10/30 08:59:09;;;;;;;0.30;0.20;;;8.90;99.90;;;;;;5041750;28;20546;-94
2021/10/30 09:01:49;;;;;;;0.53;0.30;;;8.90;99.90;;;;;;5034135;28;20021;-95
2021/10/30 09:04:17;;;;;;;2.35;0.50;;;8.90;99.90;;;;;;5015213;28;20277;-93
2021/10/30 09:07:03;;;;;;;1.60;0.40;;;8.90;99.90;;;;;;5016888;28;20018;-94
2021/10/30 09:09:31;;;;;;;0.68;0.30;;;8.90;99.90;;;;;;5015391;28;20038;-93
2021/10/30 09:12:14;;;;;;;2.30;0.65;;;8.90;99.90;;;;;;5033265;28;20026;-94
2021/10/30 09:14:44;;;;;;;2.63;0.60;;;8.90;99.90;;;;;;5026735;28;20026;-94
2021/10/30 09:17:15;;;;;;;0.52;0.45;;;8.90;99.90;;;;;;5015389;28;20041;-93
2021/10/30 09:19:43;;;;;;;1.88;0.75;;;9.00;99.90;;;;;;5015509;28;20080;-94
2021/10/30 09:22:09;;;;;;;2.00;0.73;;;9.00;99.90;;;;;;5021452;28;20022;-96
2021/10/30 09:25:03;;;;;;;2.47;1.48;;;9.00;99.90;;;;;;5035560;28;20107;-95
2021/10/30 09:27:58;;;;;;;2.40;0.65;;;9.00;99.90;;;;;;5032381;28;20042;-96
2021/10/30 09:30:28;;;;;;;2.63;1.20;;;9.10;99.90;;;;;;5018664;28;20026;-94
2021/10/30 09:32:58;;;;;;;2.58;1.20;;;9.10;99.90;;;;;;5011146;28;20050;-93
2021/10/30 09:35:30;;;;;;;2.40;1.33;;;9.00;99.90;;;;;;5021547;28;20034;-95
2021/10/30 09:37:55;;;;;;;1.90;1.42;;;9.00;99.90;;;;;;5014396;28;20049;-95
2021/10/30 09:40:29;;;;;;;2.72;0.90;;;9.10;99.90;;;;;;5011600;28;20472;-95
2021/10/30 09:43:14;;;;;;;2.20;0.80;;;9.10;99.90;;;;;;4991714;28;20026;-94
2021/10/30 09:45:53;;;;;;;3.28;0.60;;;9.10;99.90;;;;;;5015147;28;20025;-95
2021/10/30 09:48:27;;;;;;;2.35;0.88;;;9.00;99.90;;;;;;5015732;28;20018;-94
2021/10/30 09:50:58;;;;;;;0.68;0.57;;;9.00;99.90;;;;;;5014357;28;20026;-92
2021/10/30 09:53:39;;;;;;;2.85;0.55;;;9.10;99.90;;;;;;5030525;28;20018;-94
2021/10/30 09:56:37;;;;;;;1.98;0.55;;;9.10;99.90;;;;;;5014295;28;20076;-94
2021/10/30 09:59:47;;;;;;;0.60;0.60;;;9.10;99.90;;;;;;5031566;28;20045;-94
2021/10/30 10:02:22;;;;;;;1.73;0.60;;;9.00;99.90;;;;;;5015343;28;20045;-95
2021/10/30 10:05:32;;;;;;;1.83;0.70;;;9.10;99.90;;;;;;5015617;28;20034;-94
2021/10/30 10:08:37;;;;;;;0.85;0.60;;;9.10;99.90;;;;;;5013104;28;20041;-95
2021/10/30 10:11:25;;;;;;;3.80;1.75;;;9.10;99.90;;;;;;5015164;28;20041;-95
2021/10/30 10:14:16;;;;;;;1.67;0.65;;;9.10;99.90;;;;;;5000880;28;20022;-95
2021/10/30 10:16:54;;;;;;;1.33;0.50;;;9.20;99.90;;;;;;5017950;28;20368;-94
2021/10/30 10:19:29;;;;;;;2.38;0.47;;;9.30;99.90;;;;;;5023535;28;20025;-95
2021/10/30 10:23:06;;;;;;;0.47;0.30;;;9.30;99.90;;;;;;5021502;28;20041;-96
2021/10/30 10:25:59;;;;;;;2.38;0.60;;;9.40;99.90;;;;;;5019640;28;20368;-96
2021/10/30 10:28:38;;;;;;;1.35;0.47;;;9.50;99.90;;;;;;5015122;28;20124;-95
2021/10/30 10:31:13;;;;;;;1.50;0.50;;;9.60;99.90;;;;;;5020394;28;20030;-95
2021/10/30 10:37:20;;;;;;;2.80;0.68;;;9.70;99.90;;;;;;5025248;28;20022;-95
2021/10/30 10:39:48;;;;;;;1.75;0.50;;;10.00;99.90;;;;;;5022916;28;20038;-94
2021/10/30 10:42:37;;;;;;;2.97;0.50;;;10.30;99.90;;;;;;5028615;28;20049;-96
2021/10/30 10:45:16;;;;;;;0.70;0.50;;;10.80;99.90;;;;;;5056404;28;20566;-96
2021/10/30 10:47:55;;;;;;;3.78;0.75;;;11.20;99.90;;;;;;5026273;28;20037;-96
2021/10/30 10:50:40;;;;;;;0.85;0.55;;;11.60;99.90;;;;;;5022949;28;20030;-95
2021/10/30 10:53:07;;;;;;;3.60;0.50;;;12.00;99.90;;;;;;5021537;28;20129;-94
2021/10/30 10:55:48;;;;;;;0.75;0.20;;;12.50;99.90;;;;;;5049498;28;20104;-95
2021/10/30 10:58:16;;;;;;;1.55;0.30;;;13.00;99.90;;;;;;5039512;28;20161;-95
2021/10/30 11:04:12;;;;;;;1.05;0.50;;;14.00;99.90;;;;;;5026250;28;20053;-95
2021/10/30 11:06:44;;;;;;;0.57;0.22;;;14.40;99.90;;;;;;5049720;28;20002;-95
2021/10/30 11:09:16;;;;;;;1.13;0.43;;;14.60;99.90;;;;;;5034158;28;20034;-95
2021/10/30 11:11:53;;;;;;;1.77;0.43;;;14.70;99.90;;;;;;5042321;28;20030;-95
2021/10/30 11:14:39;;;;;;;0.90;0.40;;;15.00;99.90;;;;;;5029574;28;20061;-95
2021/10/30 11:29:49;;;;;;;6.60;0.63;;;15.10;99.90;;;;;;5270403;23;20053;-96
2021/10/30 11:32:16;;;;;;;2.40;0.45;;;15.10;99.90;;;;;;5002810;28;20090;-94
2021/10/30 11:35:09;;;;;;;0.40;0.30;;;15.00;99.90;;;;;;4993763;28;20031;-96
2021/10/30 11:37:46;;;;;;;1.20;0.28;;;14.90;99.90;;;;;;4990598;28;20095;-93
2021/10/30 11:40:14;;;;;;;1.30;0.40;;;15.10;99.90;;;;;;4994460;28;20043;-96
2021/10/30 11:42:45;;;;;;;1.23;0.40;;;15.30;99.90;;;;;;4991978;28;20016;-93
2021/10/30 11:45:11;;;;;;;1.65;0.45;;;15.40;99.90;;;;;;4998514;28;20120;-96
2021/10/30 11:47:36;;;;;;;2.20;0.63;;;15.60;99.80;;;;;;5001809;28;20019;-94
2021/10/30 11:50:12;;;;;;;1.38;0.40;;;15.80;98.60;;;;;;4989216;28;20050;-93
2021/10/30 11:52:50;;;;;;;0.52;0.52;;;15.80;97.50;;;;;;4990054;28;20012;-95
2021/10/30 11:55:21;;;;;;;2.38;0.50;;;15.90;97.10;;;;;;4980928;28;20011;-95
2021/10/30 11:57:46;;;;;;;0.98;0.38;;;15.90;95.60;;;;;;4993341;28;20049;-95
2021/10/30 12:00:37;;;;;;;0.95;0.40;;;15.90;95.60;;;;;;4986923;28;20032;-94
2021/10/30 12:03:10;;;;;;;1.17;0.57;;;16.00;95.30;;;;;;4982647;28;20026;-92
2021/10/30 12:05:41;;;;;;;2.85;0.50;;;16.20;94.80;;;;;;4983594;28;20103;-92
2021/10/30 12:08:09;;;;;;;1.80;0.50;;;16.30;92.90;;;;;;4983105;28;20035;-92
2021/10/30 12:10:39;;;;;;;3.92;0.52;;;16.50;92.90;;;;;;4971324;28;20067;-94
2021/10/30 12:13:10;;;;;;;1.77;0.50;;;16.60;92.10;;;;;;4979612;28;20098;-93
2021/10/30 12:15:39;;;;;;;0.50;0.43;;;16.80;91.00;;;;;;4978661;28;20031;-91
2021/10/30 12:18:17;;;;;;;1.47;1.37;;;16.90;90.20;;;;;;4967418;28;20056;-95
2021/10/30 12:20:44;;;;;;;2.25;0.60;;;16.90;89.60;;;;;;4964523;28;20075;-95
2021/10/30 12:23:13;;;;;;;1.20;0.70;;;16.90;88.00;;;;;;4968988;28;20039;-93
2021/10/30 12:25:41;;;;;;;1.17;0.60;;;17.00;87.50;;;;;;4982727;28;20019;-96
2021/10/30 12:28:07;;;;;;;2.17;0.65;;;17.00;85.30;;;;;;4965291;28;20036;-95
2021/10/30 12:30:37;;;;;;;2.63;0.60;;;17.10;85.70;;;;;;4963175;28;20055;-96
2021/10/30 12:33:13;;;;;;;1.73;0.73;;;17.30;84.90;;;;;;4955533;28;20122;-93
2021/10/30 12:35:45;;;;;;;1.48;0.93;;;17.60;84.80;;;;;;4965494;28;20030;-95
2021/10/30 12:38:16;;;;;;;1.90;0.70;;;17.60;83.10;;;;;;4976429;28;20038;-95
2021/10/30 12:40:43;;;;;;;0.50;0.50;;;17.20;81.10;;;;;;4973967;28;20070;-95
2021/10/30 12:43:12;;;;;;;2.50;0.77;;;16.90;82.20;;;;;;4965376;28;20091;-96
2021/10/30 12:46:02;;;;;;;0.83;0.70;;;16.90;83.80;;;;;;4970728;28;20053;-94
2021/10/30 12:48:44;;;;;;;2.55;0.80;;;17.20;83.50;;;;;;4966950;28;20027;-95
2021/10/30 12:51:17;;;;;;;2.15;0.80;;;17.50;83.00;;;;;;4981606;28;20026;-93
2021/10/30 12:53:59;;;;;;;0.60;0.60;;;17.70;81.00;;;;;;4975970;28;20022;-95
2021/10/30 12:56:25;;;;;;;2.33;0.70;;;17.70;79.50;;;;;;4963405;28;20100;-92
2021/10/30 12:59:02;;;;;;;1.92;0.90;;;17.60;78.20;;;;;;4972098;28;20028;-95
2021/10/30 13:01:30;;;;;;;1.52;0.80;;;17.40;79.30;;;;;;4974017;28;20051;-94
2021/10/30 13:04:13;;;;;;;0.98;0.95;;;17.30;79.90;;;;;;4952609;28;20011;-94
2021/10/30 13:06:42;;;;;;;1.42;0.73;;;17.30;79.70;;;;;;4973913;28;20092;-90
2021/10/30 13:09:10;;;;;;;2.47;0.68;;;17.30;79.60;;;;;;4975759;28;20015;-93
2021/10/30 13:11:41;;;;;;;1.85;0.50;;;17.40;79.00;;;;;;4979969;28;20038;-91
2021/10/30 13:14:12;;;;;;;2.25;0.77;;;17.40;79.00;;;;;;4969065;28;20028;-93
2021/10/30 13:16:39;;;;;;;3.08;0.70;;;17.60;79.10;;;;;;4966804;28;20027;-92
2021/10/30 13:19:05;;;;;;;1.38;0.60;;;17.90;78.40;;;;;;4960814;28;20046;-92
2021/10/30 13:21:31;;;;;;;3.13;1.65;;;17.90;76.50;;;;;;4976446;28;20031;-94